createdAt,value
2022-11-16T00:01:43.354Z,14.30
2022-11-16T00:04:12.932Z,14.04
2022-11-16T00:06:41.044Z,12.59
2022-11-16T00:09:25.588Z,12.43
2022-11-16T00:11:55.963Z,13.23
2022-11-16T00:14:27.764Z,12.54
2022-11-16T00:16:55.937Z,13.44
2022-11-16T00:19:24.147Z,12.33
2022-11-16T00:21:52.254Z,13.40
2022-11-16T00:24:21.255Z,13.79
2022-11-16T00:26:49.932Z,13.47
2022-11-16T00:29:19.965Z,13.39
2022-11-16T00:31:49.944Z,12.79
2022-11-16T00:34:18.736Z,12.89
2022-11-16T00:36:46.900Z,13.59
2022-11-16T00:39:16.156Z,12.91
2022-11-16T00:41:44.745Z,13.38
2022-11-16T00:44:13.110Z,12.54
2022-11-16T00:46:41.154Z,12.57
2022-11-16T00:49:10.783Z,12.02
2022-11-16T00:51:38.957Z,13.09
2022-11-16T00:54:09.989Z,12.44
2022-11-16T00:56:38.857Z,13.20
2022-11-16T00:59:07.710Z,11.60
2022-11-16T01:01:35.660Z,12.61
2022-11-16T01:04:03.589Z,13.23
2022-11-16T01:06:32.832Z,13.91
2022-11-16T01:09:02.057Z,12.37
2022-11-16T01:11:47.365Z,11.64
2022-11-16T01:14:15.280Z,12.81
2022-11-16T01:16:44.667Z,11.17
2022-11-16T01:19:12.592Z,11.83
2022-11-16T01:21:41.832Z,13.04
2022-11-16T01:24:09.754Z,10.20
2022-11-16T01:26:37.639Z,13.24
2022-11-16T01:29:05.865Z,13.49
2022-11-16T01:31:38.146Z,12.11
2022-11-16T01:34:06.520Z,13.18
2022-11-16T01:36:36.604Z,12.40
2022-11-16T01:39:06.234Z,12.69
2022-11-16T01:41:45.585Z,11.54
2022-11-16T01:44:52.194Z,11.98
2022-11-16T01:47:20.319Z,12.31
2022-11-16T01:49:50.982Z,13.52
2022-11-16T01:52:30.730Z,13.21
2022-11-16T01:55:00.401Z,12.93
2022-11-16T01:57:36.627Z,12.13
2022-11-16T02:00:10.470Z,11.80
2022-11-16T02:02:54.738Z,12.77
2022-11-16T02:05:56.552Z,12.15
2022-11-16T02:08:53.306Z,11.28
2022-11-16T02:11:58.623Z,11.82
2022-11-16T02:14:39.220Z,12.22
2022-11-16T02:17:12.038Z,12.16
2022-11-16T02:20:00.103Z,10.79
2022-11-16T02:22:41.863Z,11.51
2022-11-16T02:25:14.911Z,12.06
2022-11-16T02:28:15.304Z,11.70
2022-11-16T02:30:46.335Z,12.04
2022-11-16T02:33:18.207Z,12.49
2022-11-16T02:35:48.493Z,12.55
2022-11-16T02:38:18.691Z,11.57
2022-11-16T02:40:49.497Z,11.17
2022-11-16T02:43:26.725Z,12.30
2022-11-16T02:45:59.791Z,12.32
2022-11-16T02:48:32.692Z,12.37
2022-11-16T02:51:01.797Z,11.34
2022-11-16T02:53:34.007Z,11.41
2022-11-16T02:56:02.112Z,10.99
2022-11-16T02:58:30.590Z,12.30
2022-11-16T03:01:03.239Z,12.56
2022-11-16T03:03:36.411Z,12.28
2022-11-16T03:06:08.664Z,13.30
2022-11-16T03:08:40.033Z,12.92
2022-11-16T03:11:29.785Z,12.11
2022-11-16T03:14:03.161Z,11.79
2022-11-16T03:16:36.581Z,12.88
2022-11-16T03:19:06.695Z,12.64
2022-11-16T03:21:39.289Z,13.03
2022-11-16T03:24:08.195Z,13.14
2022-11-16T03:26:52.022Z,13.75
2022-11-16T03:29:25.585Z,12.60
2022-11-16T03:31:59.896Z,12.81
2022-11-16T03:34:30.738Z,13.64
2022-11-16T03:37:00.361Z,13.15
2022-11-16T03:39:32.491Z,13.65
2022-11-16T03:42:02.109Z,14.33
2022-11-16T03:44:30.459Z,13.16
2022-11-16T03:46:59.723Z,12.89
2022-11-16T03:49:31.021Z,12.89
2022-11-16T03:51:59.489Z,12.75
2022-11-16T03:54:27.430Z,13.00
2022-11-16T03:56:55.311Z,13.00
2022-11-16T03:59:24.081Z,13.36
2022-11-16T04:01:52.568Z,12.30
2022-11-16T04:04:39.572Z,12.10
2022-11-16T04:07:26.663Z,12.85
2022-11-16T04:10:12.445Z,13.76
2022-11-16T04:13:02.292Z,14.67
2022-11-16T04:15:47.474Z,12.55
2022-11-16T04:18:33.173Z,13.45
2022-11-16T04:21:20.543Z,13.29
2022-11-16T04:24:06.326Z,13.36
2022-11-16T04:26:52.134Z,13.78
2022-11-16T04:29:20.365Z,13.75
2022-11-16T04:32:05.771Z,13.99
2022-11-16T04:34:51.217Z,14.29
2022-11-16T04:37:37.956Z,13.37
2022-11-16T04:40:08.484Z,13.77
2022-11-16T04:42:36.741Z,14.05
2022-11-16T04:45:23.611Z,13.07
2022-11-16T04:47:54.188Z,14.22
2022-11-16T04:50:26.719Z,13.88
2022-11-16T04:52:56.475Z,13.26
2022-11-16T04:55:24.418Z,14.44
2022-11-16T04:57:52.460Z,15.02
2022-11-16T05:00:22.698Z,13.42
2022-11-16T05:02:51.213Z,12.71
2022-11-16T05:05:19.382Z,13.02
2022-11-16T05:07:49.193Z,13.13
2022-11-16T05:10:24.752Z,12.91
2022-11-16T05:12:54.036Z,13.97
2022-11-16T05:15:23.297Z,14.98
2022-11-16T05:17:54.778Z,14.30
2022-11-16T05:20:42.769Z,15.04
2022-11-16T05:23:30.894Z,13.73
2022-11-16T05:26:05.154Z,13.66
2022-11-16T05:28:34.092Z,13.85
2022-11-16T05:31:03.152Z,14.07
2022-11-16T05:33:32.705Z,13.25
2022-11-16T05:36:00.688Z,13.38
2022-11-16T05:38:28.643Z,13.97
2022-11-16T05:40:59.477Z,13.80
2022-11-16T05:43:30.286Z,13.28
2022-11-16T05:46:24.683Z,14.22
2022-11-16T05:48:52.916Z,13.83
2022-11-16T05:51:21.472Z,15.06
2022-11-16T05:53:49.616Z,15.32
2022-11-16T05:56:22.156Z,14.84
2022-11-16T05:58:52.342Z,15.44
2022-11-16T06:01:21.287Z,15.19
2022-11-16T06:03:50.641Z,14.71
2022-11-16T06:06:19.937Z,15.69
2022-11-16T06:08:48.934Z,15.58
2022-11-16T06:11:22.300Z,15.29
2022-11-16T06:13:50.260Z,15.73
2022-11-16T06:16:19.885Z,15.50
2022-11-16T06:18:48.783Z,15.53
2022-11-16T06:21:19.467Z,14.72
2022-11-16T06:23:49.209Z,14.37
2022-11-16T06:26:18.756Z,14.50
2022-11-16T06:28:47.598Z,14.73
2022-11-16T06:31:15.582Z,15.26
2022-11-16T06:33:44.907Z,15.28
2022-11-16T06:36:19.696Z,15.95
2022-11-16T06:38:49.591Z,15.26
2022-11-16T06:41:18.155Z,15.21
2022-11-16T06:43:49.690Z,14.91
2022-11-16T06:46:20.653Z,13.67
2022-11-16T06:48:50.405Z,15.25
2022-11-16T06:51:19.340Z,16.46
2022-11-16T06:53:48.327Z,15.67
2022-11-16T06:56:17.073Z,16.02
2022-11-16T06:58:53.231Z,14.52
2022-11-16T07:01:22.137Z,15.07
2022-11-16T07:03:53.029Z,15.22
2022-11-16T07:06:20.982Z,14.81
2022-11-16T07:08:49.099Z,15.51
2022-11-16T07:11:21.269Z,16.26
2022-11-16T07:13:49.423Z,15.96
2022-11-16T07:16:17.931Z,15.87
2022-11-16T07:18:56.379Z,15.67
2022-11-16T07:21:24.844Z,15.08
2022-11-16T07:23:55.911Z,15.77
2022-11-16T07:26:24.234Z,16.35
2022-11-16T07:28:59.225Z,14.85
2022-11-16T07:31:27.809Z,15.51
2022-11-16T07:34:32.676Z,15.27
2022-11-16T07:37:09.871Z,16.03
2022-11-16T07:39:38.329Z,15.44
2022-11-16T07:42:11.787Z,14.86
2022-11-16T07:44:51.037Z,15.85
2022-11-16T07:47:19.938Z,14.46
2022-11-16T07:49:49.485Z,15.19
2022-11-16T07:52:20.562Z,14.86
2022-11-16T07:54:58.081Z,16.00
2022-11-16T07:57:28.216Z,14.95
2022-11-16T07:59:59.199Z,14.49
2022-11-16T08:02:28.849Z,15.34
2022-11-16T08:04:58.189Z,14.99
2022-11-16T08:07:28.951Z,15.18
2022-11-16T08:09:57.882Z,15.20
2022-11-16T08:12:26.399Z,14.86
2022-11-16T08:14:55.735Z,13.80
2022-11-16T08:17:25.014Z,14.51
2022-11-16T08:19:54.574Z,15.40
2022-11-16T08:22:24.628Z,16.63
2022-11-16T08:24:53.581Z,15.08
2022-11-16T08:27:21.773Z,13.55
2022-11-16T08:29:53.461Z,14.14
2022-11-16T08:32:22.361Z,14.95
2022-11-16T08:34:50.375Z,14.82
2022-11-16T08:37:18.615Z,14.21
2022-11-16T08:39:48.462Z,13.91
2022-11-16T08:42:16.341Z,14.44
2022-11-16T08:44:48.120Z,14.42
2022-11-16T08:47:18.906Z,14.92
2022-11-16T08:49:55.149Z,15.77
2022-11-16T08:52:26.080Z,14.45
2022-11-16T08:55:31.183Z,14.65
2022-11-16T08:57:59.186Z,14.27
2022-11-16T09:04:39.951Z,14.44
2022-11-16T09:07:07.909Z,14.68
2022-11-16T09:09:35.842Z,13.91
2022-11-16T09:12:05.520Z,13.73
2022-11-16T09:14:33.401Z,15.38
2022-11-16T09:17:01.302Z,14.10
2022-11-16T09:19:29.203Z,13.60
2022-11-16T09:21:57.106Z,13.68
2022-11-16T09:24:24.985Z,14.17
2022-11-16T09:26:52.846Z,13.47
2022-11-16T09:29:22.091Z,14.01
2022-11-16T09:31:49.955Z,14.28
2022-11-16T09:34:17.778Z,14.35
2022-11-16T09:36:45.676Z,14.24
2022-11-16T09:39:30.142Z,14.32
2022-11-16T09:42:06.613Z,14.25
2022-11-16T09:44:50.174Z,15.10
2022-11-16T09:47:21.646Z,14.21
2022-11-16T09:49:55.698Z,14.29
2022-11-16T09:52:29.965Z,14.78
2022-11-16T09:54:59.295Z,14.52
2022-11-16T09:57:30.216Z,15.04
2022-11-16T10:00:03.511Z,15.58
2022-11-16T10:02:44.028Z,13.49
2022-11-16T10:05:17.884Z,14.53
2022-11-16T10:07:48.380Z,14.29
2022-11-16T10:10:17.455Z,12.12
2022-11-16T10:12:47.400Z,12.20
2022-11-16T10:15:28.294Z,13.55
2022-11-16T10:18:14.078Z,13.38
2022-11-16T10:20:50.439Z,14.22
2022-11-16T10:23:26.351Z,12.89
2022-11-16T10:25:56.324Z,13.40
2022-11-16T10:28:45.044Z,14.96
2022-11-16T10:31:19.868Z,14.10
2022-11-16T10:33:49.888Z,14.02
2022-11-16T10:36:18.036Z,14.40
2022-11-16T10:38:46.589Z,14.26
2022-11-16T10:41:19.434Z,15.53
2022-11-16T10:43:47.419Z,15.92
2022-11-16T10:46:22.070Z,14.02
2022-11-16T10:48:56.795Z,13.14
2022-11-16T10:51:24.703Z,13.65
2022-11-16T10:53:55.703Z,13.35
2022-11-16T10:56:26.096Z,14.10
2022-11-16T10:58:56.583Z,14.07
2022-11-16T11:01:37.576Z,14.62
2022-11-16T11:04:17.343Z,14.43
2022-11-16T11:06:46.281Z,13.56
2022-11-16T11:09:23.897Z,13.62
2022-11-16T11:12:20.576Z,15.55
2022-11-16T11:15:04.010Z,14.21
2022-11-16T11:17:35.664Z,14.82
2022-11-16T11:20:05.653Z,12.29
2022-11-16T11:22:34.499Z,12.53
2022-11-16T11:25:03.468Z,13.86
2022-11-16T11:27:34.904Z,12.49
2022-11-16T11:30:03.839Z,12.17
2022-11-16T11:32:36.198Z,13.14
2022-11-16T11:35:06.435Z,13.96
2022-11-16T11:37:35.957Z,14.07
2022-11-16T11:40:22.533Z,14.48
2022-11-16T11:42:57.120Z,13.87
2022-11-16T11:45:29.283Z,14.26
2022-11-16T11:48:02.491Z,14.59
2022-11-16T11:50:51.639Z,14.36
2022-11-16T11:53:38.558Z,14.68
2022-11-16T11:56:07.143Z,13.85
2022-11-16T11:58:36.646Z,12.02
2022-11-16T12:01:25.717Z,14.01
2022-11-16T12:04:18.877Z,15.21
2022-11-16T12:06:52.315Z,13.20
2022-11-16T12:09:30.266Z,14.96
2022-11-16T12:12:11.806Z,13.40
2022-11-16T12:15:00.050Z,14.89
2022-11-16T12:17:34.418Z,15.94
2022-11-16T12:20:16.426Z,14.14
2022-11-16T12:22:59.739Z,12.85
2022-11-16T12:25:38.495Z,14.35
2022-11-16T12:28:16.021Z,14.17
2022-11-16T12:30:56.576Z,13.50
2022-11-16T12:33:34.320Z,13.31
2022-11-16T12:36:09.769Z,14.49
2022-11-16T12:38:46.511Z,14.45
2022-11-16T12:41:47.660Z,15.43
2022-11-16T12:44:20.822Z,13.91
2022-11-16T12:46:55.004Z,14.78
2022-11-16T12:49:48.762Z,14.95
2022-11-16T12:52:34.065Z,13.94
2022-11-16T12:55:26.765Z,13.53
2022-11-16T12:58:11.620Z,14.86
2022-11-16T13:00:51.617Z,14.17
2022-11-16T13:03:22.016Z,15.18
2022-11-16T13:05:59.122Z,13.68
2022-11-16T13:08:39.494Z,14.49
2022-11-16T13:11:13.001Z,14.19
2022-11-16T13:13:41.819Z,13.59
2022-11-16T13:16:10.789Z,14.00
2022-11-16T13:18:41.392Z,14.16
2022-11-16T13:21:15.815Z,13.21
2022-11-16T13:23:53.649Z,14.37
2022-11-16T13:26:24.320Z,13.92
2022-11-16T13:28:57.839Z,14.43
2022-11-16T13:31:29.896Z,15.77
2022-11-16T13:34:00.250Z,14.89
2022-11-16T13:36:46.237Z,13.82
2022-11-16T13:39:21.952Z,14.95
2022-11-16T13:41:51.157Z,14.80
2022-11-16T13:44:28.384Z,15.79
2022-11-16T13:46:59.684Z,15.92
2022-11-16T13:49:31.763Z,16.15
2022-11-16T13:52:17.292Z,14.12
2022-11-16T13:54:53.517Z,15.31
2022-11-16T13:57:24.997Z,14.85
2022-11-16T13:59:58.203Z,13.73
2022-11-16T14:02:31.952Z,15.53
2022-11-16T14:05:00.807Z,15.73
2022-11-16T14:07:37.262Z,15.27
2022-11-16T14:10:09.565Z,14.84
2022-11-16T14:12:58.512Z,15.02
2022-11-16T14:15:32.127Z,15.49
2022-11-16T14:18:23.110Z,14.82
2022-11-16T14:20:57.007Z,15.20
2022-11-16T14:23:31.887Z,14.58
2022-11-16T14:26:10.911Z,16.06
2022-11-16T14:29:11.622Z,15.57
2022-11-16T14:31:51.498Z,14.81
2022-11-16T14:34:22.074Z,15.01
2022-11-16T14:36:50.730Z,14.76
2022-11-16T14:39:26.457Z,14.62
2022-11-16T14:41:56.376Z,14.14
2022-11-16T14:44:27.800Z,14.42
2022-11-16T14:46:55.802Z,15.69
2022-11-16T14:49:25.927Z,14.97
2022-11-16T14:51:56.291Z,15.27
2022-11-16T14:54:30.112Z,14.84
2022-11-16T14:57:01.125Z,14.26
2022-11-16T14:59:29.617Z,14.39
2022-11-16T15:01:57.700Z,15.32
2022-11-16T15:04:26.674Z,14.40
2022-11-16T15:06:57.762Z,15.68
2022-11-16T15:09:28.838Z,15.31
2022-11-16T15:12:16.294Z,15.77
2022-11-16T15:14:48.748Z,14.55
2022-11-16T15:17:18.989Z,14.89
2022-11-16T15:19:55.344Z,14.70
2022-11-16T15:22:23.825Z,13.84
2022-11-16T15:24:55.482Z,14.78
2022-11-16T15:27:32.632Z,14.27
2022-11-16T15:30:01.734Z,15.89
2022-11-16T15:32:31.375Z,14.83
2022-11-16T15:35:05.014Z,14.67
2022-11-16T15:37:33.485Z,15.40
2022-11-16T15:40:03.504Z,15.70
2022-11-16T15:42:32.833Z,15.82
2022-11-16T15:45:01.222Z,14.21
2022-11-16T15:47:29.279Z,15.12
2022-11-16T15:49:57.180Z,14.39
2022-11-16T15:52:44.695Z,14.16
2022-11-16T15:55:40.017Z,14.42
2022-11-16T15:58:15.135Z,14.52
2022-11-16T16:00:43.326Z,13.73
2022-11-16T16:03:20.462Z,14.05
2022-11-16T16:05:48.782Z,14.23
2022-11-16T16:08:31.294Z,12.16
2022-11-16T16:11:04.970Z,13.52
2022-11-16T16:13:35.959Z,13.83
2022-11-16T16:16:23.062Z,13.78
2022-11-16T16:18:51.131Z,13.80
2022-11-16T16:21:19.189Z,13.96
2022-11-16T16:23:48.386Z,14.02
2022-11-16T16:26:16.524Z,12.71
2022-11-16T16:28:46.067Z,12.13
2022-11-16T16:31:14.374Z,13.42
2022-11-16T16:33:42.501Z,13.78
2022-11-16T16:36:11.670Z,13.20
2022-11-16T16:38:39.808Z,13.58
2022-11-16T16:41:08.062Z,13.69
2022-11-16T16:43:36.301Z,14.88
2022-11-16T16:46:06.293Z,14.37
2022-11-16T16:48:34.763Z,13.68
2022-11-16T16:51:02.977Z,12.50
2022-11-16T16:53:30.929Z,13.50
2022-11-16T16:55:58.852Z,13.09
2022-11-16T16:58:26.713Z,13.78
2022-11-16T17:01:00.885Z,14.67
2022-11-16T17:03:31.720Z,13.29
2022-11-16T17:06:01.774Z,13.39
2022-11-16T17:08:34.275Z,13.73
2022-11-16T17:11:02.351Z,13.06
2022-11-16T17:13:30.181Z,12.28
2022-11-16T17:15:58.211Z,13.82
2022-11-16T17:18:26.076Z,14.35
2022-11-16T17:20:55.270Z,14.48
2022-11-16T17:23:23.197Z,13.72
2022-11-16T17:25:51.159Z,15.74
2022-11-16T17:28:18.970Z,15.82
2022-11-16T17:30:46.840Z,15.59
2022-11-16T17:33:14.781Z,15.29
2022-11-16T17:35:42.895Z,14.74
2022-11-16T17:38:13.070Z,14.37
2022-11-16T17:40:41.334Z,15.02
2022-11-16T17:43:09.260Z,13.54
2022-11-16T17:45:37.226Z,15.17
2022-11-16T17:48:06.587Z,14.32
2022-11-16T17:50:34.529Z,14.95
2022-11-16T17:53:02.457Z,13.38
2022-11-16T17:55:31.772Z,13.98
2022-11-16T17:57:59.683Z,14.14
2022-11-16T18:00:27.574Z,14.26
2022-11-16T18:02:55.464Z,15.16
2022-11-16T18:05:23.330Z,14.89
2022-11-16T18:07:51.207Z,13.69
2022-11-16T18:10:19.586Z,12.90
2022-11-16T18:12:48.911Z,14.58
2022-11-16T18:15:33.169Z,14.48
2022-11-16T18:18:02.798Z,14.43
2022-11-16T18:20:31.108Z,14.78
2022-11-16T18:22:58.992Z,14.56
2022-11-16T18:25:26.910Z,13.38
2022-11-16T18:27:56.507Z,15.02
2022-11-16T18:30:25.231Z,14.05
2022-11-16T18:32:53.160Z,14.35
2022-11-16T18:35:21.041Z,13.23
2022-11-16T18:37:48.951Z,14.15
2022-11-16T18:40:18.021Z,13.69
2022-11-16T18:42:45.905Z,14.08
2022-11-16T18:45:15.320Z,13.28
2022-11-16T18:47:43.232Z,13.25
2022-11-16T18:50:18.986Z,14.14
2022-11-16T18:52:49.301Z,13.02
2022-11-16T18:55:17.192Z,13.71
2022-11-16T18:57:45.084Z,13.22
2022-11-16T19:00:16.204Z,13.79
2022-11-16T19:02:44.149Z,12.48
2022-11-16T19:05:12.029Z,14.06
2022-11-16T19:07:39.967Z,13.55
2022-11-16T19:10:09.250Z,13.31
2022-11-16T19:12:37.139Z,12.95
2022-11-16T19:15:05.782Z,13.65
2022-11-16T19:17:48.022Z,13.14
2022-11-16T19:20:22.811Z,13.36
2022-11-16T19:22:50.658Z,12.91
2022-11-16T19:25:18.487Z,13.04
2022-11-16T19:27:46.364Z,13.62
2022-11-16T19:30:14.332Z,12.18
2022-11-16T19:32:43.533Z,12.70
2022-11-16T19:35:12.037Z,12.85
2022-11-16T19:37:40.004Z,13.85
2022-11-16T19:40:09.273Z,14.21
2022-11-16T19:42:37.635Z,14.91
2022-11-16T19:45:06.603Z,13.81
2022-11-16T19:47:34.689Z,12.43
2022-11-16T19:50:04.086Z,12.81
2022-11-16T19:52:32.177Z,13.04
2022-11-16T19:55:00.303Z,12.95
2022-11-16T19:57:28.931Z,13.76
2022-11-16T19:59:56.965Z,14.14
2022-11-16T20:02:25.038Z,14.25
2022-11-16T20:04:53.376Z,13.95
2022-11-16T20:07:23.553Z,15.14
2022-11-16T20:09:53.570Z,13.95
2022-11-16T20:12:21.666Z,14.38
2022-11-16T20:14:49.725Z,13.80
2022-11-16T20:17:17.834Z,12.53
2022-11-16T20:19:45.832Z,13.14
2022-11-16T20:22:13.848Z,13.52
2022-11-16T20:24:43.314Z,13.10
2022-11-16T20:27:11.313Z,13.32
2022-11-16T20:29:39.190Z,11.89
2022-11-16T20:32:07.210Z,12.49
2022-11-16T20:34:35.346Z,12.30
2022-11-16T20:37:03.498Z,11.82
2022-11-16T20:39:31.619Z,12.97
2022-11-16T20:42:00.970Z,14.08
2022-11-16T20:44:30.039Z,13.28
2022-11-16T20:46:58.019Z,13.69
2022-11-16T20:49:26.058Z,14.53
2022-11-16T20:51:53.987Z,16.20
2022-11-16T20:54:22.193Z,15.57
2022-11-16T20:56:50.554Z,15.91
2022-11-16T20:59:20.172Z,14.20
2022-11-16T21:01:48.857Z,15.37
2022-11-16T21:04:17.206Z,14.47
2022-11-16T21:06:45.320Z,15.71
2022-11-16T21:09:15.470Z,15.80
2022-11-16T21:12:06.051Z,15.44
2022-11-16T21:14:35.369Z,15.82
2022-11-16T21:17:03.269Z,15.57
2022-11-16T21:19:31.147Z,15.89
2022-11-16T21:21:58.956Z,15.61
2022-11-16T21:24:28.344Z,13.27
2022-11-16T21:26:56.151Z,13.80
2022-11-16T21:29:39.998Z,13.49
2022-11-16T21:32:09.284Z,13.29
2022-11-16T21:34:40.092Z,14.74
2022-11-16T21:37:08.244Z,14.50
2022-11-16T21:39:36.093Z,13.52
2022-11-16T21:42:03.976Z,13.71
2022-11-16T21:44:41.836Z,13.25
2022-11-16T21:47:11.524Z,13.19
2022-11-16T21:50:02.405Z,12.06
2022-11-16T21:52:28.776Z,13.92
2022-11-16T21:55:00.326Z,13.21
2022-11-16T21:57:28.897Z,13.43
2022-11-16T21:59:56.798Z,12.13
2022-11-16T22:02:26.010Z,12.23
2022-11-16T22:05:11.303Z,12.87
2022-11-16T22:07:41.379Z,12.63
2022-11-16T22:10:11.122Z,13.68
2022-11-16T22:12:39.439Z,13.42
2022-11-16T22:15:08.392Z,13.69
2022-11-16T22:17:37.596Z,13.49
2022-11-16T22:20:06.386Z,14.22
2022-11-16T22:22:34.236Z,12.14
2022-11-16T22:25:02.059Z,13.35
2022-11-16T22:27:29.959Z,12.97
2022-11-16T22:29:57.859Z,13.96
2022-11-16T22:32:25.803Z,13.51
2022-11-16T22:34:55.072Z,12.98
2022-11-16T22:37:22.945Z,13.32
2022-11-16T22:39:50.812Z,13.14
2022-11-16T22:42:18.685Z,12.58
2022-11-16T22:44:46.484Z,11.59
2022-11-16T22:47:14.490Z,14.12
2022-11-16T22:49:42.662Z,12.85
2022-11-16T22:52:12.373Z,12.75
2022-11-16T22:54:40.528Z,12.66
2022-11-16T22:57:08.378Z,14.18
2022-11-16T22:59:36.327Z,13.21
2022-11-16T23:02:05.825Z,13.43
2022-11-16T23:04:33.755Z,14.10
2022-11-16T23:07:01.721Z,13.73
2022-11-16T23:09:31.984Z,11.78
2022-11-16T23:12:17.386Z,12.01
2022-11-16T23:15:02.439Z,11.64
2022-11-16T23:17:30.383Z,11.41
2022-11-16T23:20:17.770Z,11.90
2022-11-16T23:23:03.735Z,12.11
2022-11-16T23:25:50.981Z,10.11
2022-11-16T23:28:20.155Z,11.51
2022-11-16T23:30:48.104Z,10.79
2022-11-16T23:33:16.042Z,11.04
2022-11-16T23:35:44.392Z,11.41
2022-11-16T23:38:14.035Z,11.22
2022-11-16T23:40:43.326Z,10.33
2022-11-16T23:43:29.069Z,9.46
2022-11-16T23:45:56.936Z,8.82
2022-11-16T23:48:24.803Z,10.75
2022-11-16T23:50:52.620Z,9.54
2022-11-16T23:53:20.445Z,10.52
2022-11-16T23:55:52.879Z,10.45
2022-11-16T23:58:20.716Z,10.28
